Meteo Giornale » Osservazioni meteo Italia » Monte Scuro

ore: 08:55 - Osservazioni Meteo Monte Scuro
Lat. 39° 20' N Lon. 16° 24' E Alt. 1710 metri s.l.m.

sereno Europe/Rome

12 °C

Sereno

Temp. 24 Ore

8 °C

12 °C

Nord

3.7 Km/h

Dew point 4 °C

Umidità 57 %

Visibilità  0 Km

Il sole sorge alle ore 06:43

Il sole tramonta alle ore 18:48

Data e Ora Cielo e Fenomeni T °C DP °C Um. % Pres. hPa Vis. km Vento km/h
Oggi h: 08:55 sereno Sereno 12 4 57 1021 0 N 3.7
Oggi h: 07:55 sereno Sereno 11 4 61 1021 0 O/SO 11.1
Oggi h: 06:55 sereno Sereno 8 5 81 1021 0 SO 13
Oggi h: 05:55 sereno Sereno 8 7 93 1021 0 O/SO 14.8
Oggi h: 04:55 sereno Sereno 8 7 93 1021 0 N 5.5
Oggi h: 03:55 sereno Sereno 8 7 93 1021 0 O/SO 13
Oggi h: 02:55 sereno Sereno 8 7 93 1022 0 O/SO 9.3
Oggi h: 01:55 sereno Sereno 8 6 87 1022 0 O 9.3
Oggi h: 00:55 sereno Sereno 8 6 87 1022 0 O/SO 11.1
Ieri h: 23:55 sereno Sereno 8 6 87 1023 0 O/SO 11.1
Ieri h: 22:55 sereno Sereno 8 5 81 1023 0 O/SO 11.1
Ieri h: 21:55 sereno Sereno 9 6 81 1023 0 O 11.1
Ieri h: 20:55 sereno Sereno 9 6 81 1023 0 O/SO 11.1
Ieri h: 19:55 sereno Sereno 9 5 75 1023 10 O/SO 11.1
Ieri h: 18:55 sereno Sereno 9 5 75 1023 10 O/SO 9.3
Ieri h: 17:55 sereno Sereno 10 4 66 1023 10 O/SO 9.3
Ieri h: 16:55 sereno Sereno 11 2 53 1023 10 O/SO 9.3
Ieri h: 14:55 sereno Sereno 12 -1 40 1024 10 O/SO 11.1
Ieri h: 13:55 sereno Sereno 12 4 57 1024 10 O/SO 9.3
Ieri h: 12:55 sereno Sereno 11 5 66 1025 10 O/SO 9.3
Ieri h: 11:55 sereno Sereno 11 5 66 1025 10 O/SO 9.3
Ieri h: 10:55 sereno Sereno 10 4 66 1024 10 N 5.5
Ieri h: 09:55 sereno Sereno 9 3 66 1024 10 N 3.7